sensor_id;sensor_type;location;lat;lon;timestamp;pressure;altitude;pressure_sealevel;temperature;humidity
47815;BME280;33579;50.058;18.130;2023-07-29T00:00:34;98629.25;;;20.66;100.00
47815;BME280;33579;50.058;18.130;2023-07-29T00:01:36;98644.03;;;20.68;100.00
47815;BME280;33579;50.058;18.130;2023-07-29T00:02:37;98638.69;;;20.68;100.00
47815;BME280;33579;50.058;18.130;2023-07-29T00:03:39;98637.47;;;20.64;100.00
47815;BME280;33579;50.058;18.130;2023-07-29T00:04:41;98633.34;;;20.61;100.00
47815;BME280;33579;50.058;18.130;2023-07-29T00:05:42;98636.03;;;20.61;100.00
47815;BME280;33579;50.058;18.130;2023-07-29T00:06:44;98643.25;;;20.61;100.00
47815;BME280;33579;50.058;18.130;2023-07-29T00:07:46;98643.31;;;20.47;100.00
47815;BME280;33579;50.058;18.130;2023-07-29T00:08:48;98641.09;;;20.38;100.00
47815;BME280;33579;50.058;18.130;2023-07-29T00:09:49;98638.88;;;20.21;100.00
47815;BME280;33579;50.058;18.130;2023-07-29T00:10:51;98637.44;;;20.12;100.00
47815;BME280;33579;50.058;18.130;2023-07-29T00:11:53;98630.09;;;20.07;100.00
47815;BME280;33579;50.058;18.130;2023-07-29T00:12:54;98636.22;;;20.14;100.00
47815;BME280;33579;50.058;18.130;2023-07-29T00:13:56;98630.44;;;20.17;100.00
47815;BME280;33579;50.058;18.130;2023-07-29T00:14:57;98634.56;;;20.20;100.00
47815;BME280;33579;50.058;18.130;2023-07-29T00:15:59;98634.75;;;20.18;100.00
47815;BME280;33579;50.058;18.130;2023-07-29T00:17:01;98635.41;;;20.14;100.00
47815;BME280;33579;50.058;18.130;2023-07-29T00:18:03;98639.94;;;20.06;100.00
47815;BME280;33579;50.058;18.130;2023-07-29T00:19:04;98641.59;;;20.01;100.00
47815;BME280;33579;50.058;18.130;2023-07-29T00:20:06;98634.44;;;20.01;100.00
47815;BME280;33579;50.058;18.130;2023-07-29T00:21:09;98632.78;;;20.00;100.00
47815;BME280;33579;50.058;18.130;2023-07-29T00:22:11;98641.00;;;19.99;100.00
47815;BME280;33579;50.058;18.130;2023-07-29T00:23:13;98644.06;;;20.02;100.00
47815;BME280;33579;50.058;18.130;2023-07-29T00:24:15;98644.06;;;20.09;100.00
47815;BME280;33579;50.058;18.130;2023-07-29T00:25:16;98637.66;;;20.17;100.00
47815;BME280;33579;50.058;18.130;2023-07-29T00:26:18;98642.16;;;20.23;100.00
47815;BME280;33579;50.058;18.130;2023-07-29T00:27:19;98648.31;;;20.24;100.00
47815;BME280;33579;50.058;18.130;2023-07-29T00:28:22;98636.22;;;20.14;100.00
47815;BME280;33579;50.058;18.130;2023-07-29T00:29:24;98639.94;;;20.13;100.00
47815;BME280;33579;50.058;18.130;2023-07-29T00:30:26;98640.97;;;20.05;100.00
47815;BME280;33579;50.058;18.130;2023-07-29T00:31:27;98636.03;;;20.09;100.00
47815;BME280;33579;50.058;18.130;2023-07-29T00:32:31;98631.50;;;20.16;100.00
47815;BME280;33579;50.058;18.130;2023-07-29T00:33:32;98638.88;;;20.21;100.00
47815;BME280;33579;50.058;18.130;2023-07-29T00:34:34;98642.38;;;20.21;100.00
47815;BME280;33579;50.058;18.130;2023-07-29T00:35:36;98639.06;;;20.26;100.00
47815;BME280;33579;50.058;18.130;2023-07-29T00:36:37;98644.00;;;20.29;100.00
47815;BME280;33579;50.058;18.130;2023-07-29T00:37:39;98639.25;;;20.31;100.00
47815;BME280;33579;50.058;18.130;2023-07-29T00:38:41;98638.81;;;20.34;100.00
47815;BME280;33579;50.058;18.130;2023-07-29T00:39:43;98635.75;;;20.31;100.00
47815;BME280;33579;50.058;18.130;2023-07-29T00:40:45;98643.63;;;20.12;100.00
47815;BME280;33579;50.058;18.130;2023-07-29T00:41:49;98651.84;;;20.11;100.00
47815;BME280;33579;50.058;18.130;2023-07-29T00:42:50;98641.59;;;20.07;100.00
47815;BME280;33579;50.058;18.130;2023-07-29T00:43:52;98647.56;;;19.96;100.00
47815;BME280;33579;50.058;18.130;2023-07-29T00:44:54;98646.31;;;19.85;100.00
47815;BME280;33579;50.058;18.130;2023-07-29T00:45:56;98649.00;;;19.78;100.00
47815;BME280;33579;50.058;18.130;2023-07-29T00:46:58;98642.25;;;19.69;100.00
47815;BME280;33579;50.058;18.130;2023-07-29T00:48:01;98644.72;;;19.71;100.00
47815;BME280;33579;50.058;18.130;2023-07-29T00:49:03;98636.28;;;19.67;100.00
47815;BME280;33579;50.058;18.130;2023-07-29T00:50:06;98636.88;;;19.76;100.00
47815;BME280;33579;50.058;18.130;2023-07-29T00:51:08;98636.69;;;19.77;100.00
47815;BME280;33579;50.058;18.130;2023-07-29T00:52:10;98632.78;;;19.80;100.00
47815;BME280;33579;50.058;18.130;2023-07-29T00:53:12;98635.03;;;19.83;100.00
47815;BME280;33579;50.058;18.130;2023-07-29T00:54:14;98637.06;;;19.88;100.00
47815;BME280;33579;50.058;18.130;2023-07-29T00:55:16;98643.03;;;19.90;100.00
47815;BME280;33579;50.058;18.130;2023-07-29T00:56:18;98636.25;;;19.87;100.00
47815;BME280;33579;50.058;18.130;2023-07-29T00:57:20;98638.75;;;19.82;100.00
47815;BME280;33579;50.058;18.130;2023-07-29T00:58:23;98632.38;;;19.83;100.00
47815;BME280;33579;50.058;18.130;2023-07-29T00:59:25;98638.94;;;19.87;100.00
47815;BME280;33579;50.058;18.130;2023-07-29T01:00:27;98629.91;;;19.88;100.00
47815;BME280;33579;50.058;18.130;2023-07-29T01:01:29;98633.59;;;19.94;100.00
47815;BME280;33579;50.058;18.130;2023-07-29T01:02:31;98636.88;;;19.96;100.00
47815;BME280;33579;50.058;18.130;2023-07-29T01:03:32;98634.22;;;19.96;100.00
47815;BME280;33579;50.058;18.130;2023-07-29T01:04:34;98637.72;;;19.97;100.00
47815;BME280;33579;50.058;18.130;2023-07-29T01:05:41;98636.69;;;19.98;100.00
47815;BME280;33579;50.058;18.130;2023-07-29T01:08:05;98638.13;;;20.00;100.00
47815;BME280;33579;50.058;18.130;2023-07-29T01:13:53;98639.38;;;19.50;100.00
47815;BME280;33579;50.058;18.130;2023-07-29T01:16:30;98644.31;;;19.60;100.00
47815;BME280;33579;50.058;18.130;2023-07-29T01:17:42;98637.72;;;19.63;100.00
47815;BME280;33579;50.058;18.130;2023-07-29T01:18:47;98629.50;;;19.64;100.00
47815;BME280;33579;50.058;18.130;2023-07-29T01:20:59;98643.06;;;19.56;100.00
47815;BME280;33579;50.058;18.130;2023-07-29T01:22:02;98638.97;;;19.33;100.00
47815;BME280;33579;50.058;18.130;2023-07-29T01:23:04;98641.81;;;19.12;100.00
47815;BME280;33579;50.058;18.130;2023-07-29T01:24:06;98635.59;;;18.98;100.00
47815;BME280;33579;50.058;18.130;2023-07-29T01:25:08;98630.72;;;19.01;100.00
47815;BME280;33579;50.058;18.130;2023-07-29T01:26:09;98632.94;;;18.98;100.00
47815;BME280;33579;50.058;18.130;2023-07-29T01:27:11;98632.94;;;18.98;100.00
47815;BME280;33579;50.058;18.130;2023-07-29T01:28:14;98637.84;;;18.94;100.00
47815;BME280;33579;50.058;18.130;2023-07-29T01:29:16;98636.00;;;18.88;100.00
47815;BME280;33579;50.058;18.130;2023-07-29T01:30:19;98641.31;;;18.81;100.00
47815;BME280;33579;50.058;18.130;2023-07-29T01:31:40;98638.66;;;18.81;100.00
47815;BME280;33579;50.058;18.130;2023-07-29T01:33:57;98640.91;;;18.77;100.00
47815;BME280;33579;50.058;18.130;2023-07-29T01:36:20;98635.59;;;18.84;100.00
47815;BME280;33579;50.058;18.130;2023-07-29T01:37:26;98636.19;;;18.86;100.00
47815;BME280;33579;50.058;18.130;2023-07-29T01:38:33;98636.81;;;18.95;100.00
47815;BME280;33579;50.058;18.130;2023-07-29T01:39:36;98632.75;;;18.99;100.00
47815;BME280;33579;50.058;18.130;2023-07-29T01:40:39;98627.66;;;19.04;100.00
47815;BME280;33579;50.058;18.130;2023-07-29T01:41:43;98632.56;;;19.07;100.00
47815;BME280;33579;50.058;18.130;2023-07-29T01:42:45;98637.72;;;19.09;100.00
47815;BME280;33579;50.058;18.130;2023-07-29T01:43:47;98638.56;;;19.16;100.00
47815;BME280;33579;50.058;18.130;2023-07-29T01:44:48;98629.53;;;19.17;100.00
47815;BME280;33579;50.058;18.130;2023-07-29T01:45:50;98638.75;;;19.21;100.00
47815;BME280;33579;50.058;18.130;2023-07-29T01:46:55;98639.59;;;19.22;100.00
47815;BME280;33579;50.058;18.130;2023-07-29T01:47:57;98639.78;;;19.20;100.00
47815;BME280;33579;50.058;18.130;2023-07-29T01:48:59;98641.59;;;19.06;100.00
47815;BME280;33579;50.058;18.130;2023-07-29T01:50:00;98643.03;;;19.09;100.00
47815;BME280;33579;50.058;18.130;2023-07-29T01:51:03;98637.72;;;19.09;100.00
47815;BME280;33579;50.058;18.130;2023-07-29T01:52:05;98641.00;;;19.11;100.00
47815;BME280;33579;50.058;18.130;2023-07-29T01:53:06;98640.78;;;19.13;100.00
47815;BME280;33579;50.058;18.130;2023-07-29T01:54:08;98643.28;;;19.14;100.00
47815;BME280;33579;50.058;18.130;2023-07-29T01:55:10;98638.13;;;19.19;100.00
47815;BME280;33579;50.058;18.130;2023-07-29T01:56:12;98640.38;;;19.22;100.00
47815;BME280;33579;50.058;18.130;2023-07-29T01:57:23;98635.47;;;19.26;100.00
47815;BME280;33579;50.058;18.130;2023-07-29T01:58:24;98636.09;;;19.21;100.00
47815;BME280;33579;50.058;18.130;2023-07-29T01:59:26;98633.59;;;19.06;100.00
47815;BME280;33579;50.058;18.130;2023-07-29T02:00:28;98640.31;;;18.89;100.00
47815;BME280;33579;50.058;18.130;2023-07-29T02:01:29;98638.88;;;18.86;100.00
47815;BME280;33579;50.058;18.130;2023-07-29T02:02:31;98639.28;;;18.90;100.00
47815;BME280;33579;50.058;18.130;2023-07-29T02:03:33;98641.16;;;18.96;100.00
47815;BME280;33579;50.058;18.130;2023-07-29T02:04:35;98632.38;;;19.02;100.00
47815;BME280;33579;50.058;18.130;2023-07-29T02:05:36;98632.56;;;19.07;100.00
47815;BME280;33579;50.058;18.130;2023-07-29T02:06:38;98637.09;;;19.07;100.00
47815;BME280;33579;50.058;18.130;2023-07-29T02:07:40;98630.31;;;19.11;100.00
47815;BME280;33579;50.058;18.130;2023-07-29T02:08:41;98632.59;;;19.14;100.00
47815;BME280;33579;50.058;18.130;2023-07-29T02:09:43;98641.00;;;19.18;100.00
47815;BME280;33579;50.058;18.130;2023-07-29T02:10:45;98636.91;;;19.22;100.00
47815;BME280;33579;50.058;18.130;2023-07-29T02:11:47;98643.06;;;19.22;100.00
47815;BME280;33579;50.058;18.130;2023-07-29T02:12:48;98639.78;;;19.20;100.00
47815;BME280;33579;50.058;18.130;2023-07-29T02:13:50;98641.78;;;18.98;100.00
47815;BME280;33579;50.058;18.130;2023-07-29T02:14:52;98640.94;;;18.98;100.00
47815;BME280;33579;50.058;18.130;2023-07-29T02:15:53;98638.53;;;19.03;100.00
47815;BME280;33579;50.058;18.130;2023-07-29T02:16:55;98639.94;;;19.05;100.00
47815;BME280;33579;50.058;18.130;2023-07-29T02:17:57;98640.38;;;19.09;100.00
47815;BME280;33579;50.058;18.130;2023-07-29T02:18:58;98639.34;;;19.10;100.00
47815;BME280;33579;50.058;18.130;2023-07-29T02:20:00;98647.75;;;19.00;100.00
47815;BME280;33579;50.058;18.130;2023-07-29T02:21:02;98637.84;;;18.87;100.00
47815;BME280;33579;50.058;18.130;2023-07-29T02:22:04;98636.75;;;18.68;100.00
47815;BME280;33579;50.058;18.130;2023-07-29T02:23:06;98637.75;;;18.53;100.00
47815;BME280;33579;50.058;18.130;2023-07-29T02:24:07;98643.63;;;18.42;100.00
47815;BME280;33579;50.058;18.130;2023-07-29T02:25:09;98642.00;;;18.41;100.00
47815;BME280;33579;50.058;18.130;2023-07-29T02:26:11;98636.66;;;18.34;100.00
47815;BME280;33579;50.058;18.130;2023-07-29T02:27:12;98636.25;;;18.37;100.00
47815;BME280;33579;50.058;18.130;2023-07-29T02:28:14;98639.34;;;18.41;100.00
47815;BME280;33579;50.058;18.130;2023-07-29T02:29:16;98635.47;;;18.44;100.00
47815;BME280;33579;50.058;18.130;2023-07-29T02:30:17;98635.25;;;18.52;100.00
47815;BME280;33579;50.058;18.130;2023-07-29T02:31:24;98636.75;;;18.61;100.00
47815;BME280;33579;50.058;18.130;2023-07-29T02:32:26;98632.47;;;18.67;100.00
47815;BME280;33579;50.058;18.130;2023-07-29T02:33:28;98638.84;;;18.73;100.00
47815;BME280;33579;50.058;18.130;2023-07-29T02:34:30;98642.09;;;18.75;100.00
47815;BME280;33579;50.058;18.130;2023-07-29T02:35:32;98635.97;;;18.74;100.00
47815;BME280;33579;50.058;18.130;2023-07-29T02:36:34;98640.69;;;18.72;100.00
47815;BME280;33579;50.058;18.130;2023-07-29T02:37:36;98634.72;;;18.70;100.00
47815;BME280;33579;50.058;18.130;2023-07-29T02:38:39;98646.41;;;18.76;100.00
47815;BME280;33579;50.058;18.130;2023-07-29T02:39:40;98644.41;;;18.78;100.00
47815;BME280;33579;50.058;18.130;2023-07-29T02:40:42;98640.50;;;18.80;100.00
47815;BME280;33579;50.058;18.130;2023-07-29T02:41:44;98638.66;;;18.81;100.00
47815;BME280;33579;50.058;18.130;2023-07-29T02:42:45;98642.97;;;18.82;100.00
47815;BME280;33579;50.058;18.130;2023-07-29T02:43:50;98641.53;;;18.86;100.00
47815;BME280;33579;50.058;18.130;2023-07-29T02:44:52;98642.13;;;18.88;100.00
47815;BME280;33579;50.058;18.130;2023-07-29T02:45:54;98634.78;;;18.84;100.00
47815;BME280;33579;50.058;18.130;2023-07-29T02:46:56;98643.38;;;18.86;100.00
47815;BME280;33579;50.058;18.130;2023-07-29T02:47:57;98641.91;;;18.70;100.00
47815;BME280;33579;50.058;18.130;2023-07-29T02:49:01;98649.22;;;18.54;100.00
47815;BME280;33579;50.058;18.130;2023-07-29T02:50:03;98646.75;;;18.52;100.00
47815;BME280;33579;50.058;18.130;2023-07-29T02:51:04;98651.91;;;18.54;100.00
47815;BME280;33579;50.058;18.130;2023-07-29T02:52:06;98650.63;;;18.50;100.00
47815;BME280;33579;50.058;18.130;2023-07-29T02:53:08;98646.56;;;18.54;100.00
47815;BME280;33579;50.058;18.130;2023-07-29T02:54:09;98639.34;;;18.41;100.00
47815;BME280;33579;50.058;18.130;2023-07-29T02:55:11;98644.38;;;18.22;100.00
47815;BME280;33579;50.058;18.130;2023-07-29T02:56:13;98652.34;;;18.16;100.00
47815;BME280;33579;50.058;18.130;2023-07-29T02:57:15;98656.91;;;18.00;100.00
47815;BME280;33579;50.058;18.130;2023-07-29T02:58:17;98649.47;;;17.89;100.00
47815;BME280;33579;50.058;18.130;2023-07-29T02:59:18;98659.22;;;17.75;100.00
47815;BME280;33579;50.058;18.130;2023-07-29T03:00:20;98655.53;;;17.76;100.00
47815;BME280;33579;50.058;18.130;2023-07-29T03:01:22;98652.00;;;17.68;100.00
47815;BME280;33579;50.058;18.130;2023-07-29T03:02:24;98648.53;;;17.68;100.00
47815;BME280;33579;50.058;18.130;2023-07-29T03:03:26;98652.19;;;17.67;100.00
47815;BME280;33579;50.058;18.130;2023-07-29T03:04:28;98650.41;;;17.74;100.00
47815;BME280;33579;50.058;18.130;2023-07-29T03:05:30;98657.22;;;17.83;100.00
47815;BME280;33579;50.058;18.130;2023-07-29T03:06:32;98655.19;;;17.86;100.00
47815;BME280;33579;50.058;18.130;2023-07-29T03:07:35;98652.13;;;17.89;100.00
47815;BME280;33579;50.058;18.130;2023-07-29T03:08:38;98658.47;;;17.88;100.00
47815;BME280;33579;50.058;18.130;2023-07-29T03:09:40;98663.66;;;17.96;100.00
47815;BME280;33579;50.058;18.130;2023-07-29T03:10:42;98658.22;;;18.04;100.00
47815;BME280;33579;50.058;18.130;2023-07-29T03:11:44;98659.88;;;18.12;100.00
47815;BME280;33579;50.058;18.130;2023-07-29T03:12:46;98659.44;;;18.08;100.00
47815;BME280;33579;50.058;18.130;2023-07-29T03:13:48;98661.28;;;18.08;100.00
47815;BME280;33579;50.058;18.130;2023-07-29T03:14:50;98651.03;;;18.05;100.00
47815;BME280;33579;50.058;18.130;2023-07-29T03:15:52;98661.53;;;18.13;100.00
47815;BME280;33579;50.058;18.130;2023-07-29T03:16:54;98653.97;;;18.17;100.00
47815;BME280;33579;50.058;18.130;2023-07-29T03:17:55;98661.16;;;18.23;100.00
47815;BME280;33579;50.058;18.130;2023-07-29T03:18:57;98661.59;;;18.26;100.00
47815;BME280;33579;50.058;18.130;2023-07-29T03:19:59;98654.22;;;18.29;100.00
47815;BME280;33579;50.058;18.130;2023-07-29T03:21:01;98652.19;;;18.31;100.00
47815;BME280;33579;50.058;18.130;2023-07-29T03:22:03;98654.25;;;18.35;100.00
47815;BME280;33579;50.058;18.130;2023-07-29T03:23:04;98652.66;;;18.41;100.00
47815;BME280;33579;50.058;18.130;2023-07-29T03:24:06;98650.41;;;18.45;100.00
47815;BME280;33579;50.058;18.130;2023-07-29T03:25:08;98646.72;;;18.46;100.00
47815;BME280;33579;50.058;18.130;2023-07-29T03:26:10;98655.78;;;18.51;100.00
47815;BME280;33579;50.058;18.130;2023-07-29T03:27:12;98651.91;;;18.54;100.00
47815;BME280;33579;50.058;18.130;2023-07-29T03:28:13;98646.91;;;18.44;100.00
47815;BME280;33579;50.058;18.130;2023-07-29T03:29:15;98654.66;;;18.32;100.00
47815;BME280;33579;50.058;18.130;2023-07-29T03:30:21;98651.53;;;18.22;100.00
47815;BME280;33579;50.058;18.130;2023-07-29T03:31:24;98652.78;;;18.26;100.00
47815;BME280;33579;50.058;18.130;2023-07-29T03:32:25;98652.41;;;18.29;100.00
47815;BME280;33579;50.058;18.130;2023-07-29T03:33:27;98654.25;;;18.35;100.00
47815;BME280;33579;50.058;18.130;2023-07-29T03:34:29;98654.50;;;18.40;100.00
47815;BME280;33579;50.058;18.130;2023-07-29T03:35:31;98655.56;;;18.46;100.00
47815;BME280;33579;50.058;18.130;2023-07-29T03:36:32;98658.88;;;18.55;100.00
47815;BME280;33579;50.058;18.130;2023-07-29T03:37:34;98661.31;;;18.57;100.00
47815;BME280;33579;50.058;18.130;2023-07-29T03:38:36;98655.19;;;18.56;100.00
47815;BME280;33579;50.058;18.130;2023-07-29T03:39:38;98658.66;;;18.57;100.00
47815;BME280;33579;50.058;18.130;2023-07-29T03:40:40;98650.66;;;18.57;100.00
47815;BME280;33579;50.058;18.130;2023-07-29T03:41:42;98653.13;;;18.58;100.00
47815;BME280;33579;50.058;18.130;2023-07-29T03:42:44;98652.09;;;18.59;100.00
47815;BME280;33579;50.058;18.130;2023-07-29T03:43:45;98653.31;;;18.57;100.00
47815;BME280;33579;50.058;18.130;2023-07-29T03:44:47;98660.06;;;18.52;100.00
47815;BME280;33579;50.058;18.130;2023-07-29T03:45:49;98657.22;;;18.54;100.00
47815;BME280;33579;50.058;18.130;2023-07-29T03:46:50;98657.22;;;18.54;100.00
47815;BME280;33579;50.058;18.130;2023-07-29T03:47:52;98662.16;;;18.57;100.00
47815;BME280;33579;50.058;18.130;2023-07-29T03:48:54;98665.84;;;18.63;100.00
47815;BME280;33579;50.058;18.130;2023-07-29T03:49:56;98660.13;;;18.66;100.00
47815;BME280;33579;50.058;18.130;2023-07-29T03:50:57;98664.41;;;18.60;100.00
47815;BME280;33579;50.058;18.130;2023-07-29T03:51:59;98662.34;;;18.56;100.00
47815;BME280;33579;50.058;18.130;2023-07-29T03:53:02;98655.97;;;18.57;100.00
47815;BME280;33579;50.058;18.130;2023-07-29T03:54:03;98660.72;;;18.61;100.00
47815;BME280;33579;50.058;18.130;2023-07-29T03:55:05;98661.97;;;18.59;100.00
47815;BME280;33579;50.058;18.130;2023-07-29T03:56:07;98664.63;;;18.59;100.00
47815;BME280;33579;50.058;18.130;2023-07-29T03:57:09;98662.16;;;18.57;100.00
47815;BME280;33579;50.058;18.130;2023-07-29T03:58:12;98662.94;;;18.58;100.00
47815;BME280;33579;50.058;18.130;2023-07-29T03:59:13;98667.69;;;18.62;100.00
47815;BME280;33579;50.058;18.130;2023-07-29T04:00:15;98674.28;;;18.66;100.00
47815;BME280;33579;50.058;18.130;2023-07-29T04:01:17;98657.28;;;18.67;100.00
47815;BME280;33579;50.058;18.130;2023-07-29T04:02:19;98663.41;;;18.68;100.00
47815;BME280;33579;50.058;18.130;2023-07-29T04:03:20;98658.50;;;18.72;100.00
47815;BME280;33579;50.058;18.130;2023-07-29T04:04:25;98668.75;;;18.75;100.00
47815;BME280;33579;50.058;18.130;2023-07-29T04:05:27;98665.72;;;18.78;100.00
47815;BME280;33579;50.058;18.130;2023-07-29T04:06:29;98675.72;;;18.76;100.00
47815;BME280;33579;50.058;18.130;2023-07-29T04:07:31;98665.69;;;18.71;100.00
47815;BME280;33579;50.058;18.130;2023-07-29T04:08:32;98668.72;;;18.61;100.00
47815;BME280;33579;50.058;18.130;2023-07-29T04:09:34;98674.03;;;18.61;100.00
47815;BME280;33579;50.058;18.130;2023-07-29T04:10:36;98666.88;;;18.62;100.00
47815;BME280;33579;50.058;18.130;2023-07-29T04:11:38;98671.81;;;18.65;100.00
47815;BME280;33579;50.058;18.130;2023-07-29T04:12:40;98673.47;;;18.73;100.00
47815;BME280;33579;50.058;18.130;2023-07-29T04:13:41;98676.56;;;18.76;100.00
47815;BME280;33579;50.058;18.130;2023-07-29T04:14:43;98669.41;;;18.77;100.00
47815;BME280;33579;50.058;18.130;2023-07-29T04:15:45;98680.88;;;18.77;100.00
47815;BME280;33579;50.058;18.130;2023-07-29T04:16:46;98678.19;;;18.77;100.00
47815;BME280;33579;50.058;18.130;2023-07-29T04:17:50;98677.78;;;18.80;100.00
47815;BME280;33579;50.058;18.130;2023-07-29T04:18:52;98679.84;;;18.85;100.00
47815;BME280;33579;50.058;18.130;2023-07-29T04:19:54;98682.75;;;18.90;100.00
47815;BME280;33579;50.058;18.130;2023-07-29T04:20:59;98672.31;;;18.95;100.00
47815;BME280;33579;50.058;18.130;2023-07-29T04:22:01;98671.53;;;19.02;100.00
47815;BME280;33579;50.058;18.130;2023-07-29T04:23:03;98674.81;;;19.04;100.00
47815;BME280;33579;50.058;18.130;2023-07-29T04:24:04;98669.28;;;19.05;100.00
47815;BME280;33579;50.058;18.130;2023-07-29T04:25:06;98674.00;;;19.10;100.00
47815;BME280;33579;50.058;18.130;2023-07-29T04:26:08;98670.94;;;19.13;100.00
47815;BME280;33579;50.058;18.130;2023-07-29T04:27:10;98680.59;;;19.14;100.00
47815;BME280;33579;50.058;18.130;2023-07-29T04:28:11;98680.38;;;19.16;100.00
47815;BME280;33579;50.058;18.130;2023-07-29T04:29:13;98695.34;;;19.17;100.00
47815;BME280;33579;50.058;18.130;2023-07-29T04:30:15;98687.59;;;19.22;100.00
47815;BME280;33579;50.058;18.130;2023-07-29T04:31:16;98692.31;;;19.27;100.00
47815;BME280;33579;50.058;18.130;2023-07-29T04:32:18;98686.34;;;19.31;100.00
47815;BME280;33579;50.058;18.130;2023-07-29T04:33:20;98683.06;;;19.36;100.00
47815;BME280;33579;50.058;18.130;2023-07-29T04:34:21;98692.09;;;19.35;100.00
47815;BME280;33579;50.058;18.130;2023-07-29T04:35:23;98682.69;;;19.32;100.00
47815;BME280;33579;50.058;18.130;2023-07-29T04:36:25;98691.28;;;19.34;100.00
47815;BME280;33579;50.058;18.130;2023-07-29T04:37:26;98683.91;;;19.36;100.00
47815;BME280;33579;50.058;18.130;2023-07-29T04:38:32;98691.06;;;19.43;100.00
47815;BME280;33579;50.058;18.130;2023-07-29T04:39:34;98691.72;;;19.45;100.00
47815;BME280;33579;50.058;18.130;2023-07-29T04:40:35;98692.72;;;19.50;100.00
47815;BME280;33579;50.058;18.130;2023-07-29T04:41:37;98694.56;;;19.57;100.00
47815;BME280;33579;50.058;18.130;2023-07-29T04:42:39;98696.41;;;19.63;100.00
47815;BME280;33579;50.058;18.130;2023-07-29T04:43:41;98693.34;;;19.66;100.00
47815;BME280;33579;50.058;18.130;2023-07-29T04:44:43;98698.09;;;19.71;100.00
47815;BME280;33579;50.058;18.130;2023-07-29T04:45:45;98693.56;;;19.71;100.00
47815;BME280;33579;50.058;18.130;2023-07-29T04:46:46;98696.84;;;19.60;100.00
47815;BME280;33579;50.058;18.130;2023-07-29T04:47:48;98690.28;;;19.56;100.00
47815;BME280;33579;50.058;18.130;2023-07-29T04:48:50;98688.22;;;19.58;100.00
47815;BME280;33579;50.058;18.130;2023-07-29T04:49:51;98696.22;;;19.64;100.00
47815;BME280;33579;50.058;18.130;2023-07-29T04:50:53;98689.44;;;19.69;100.00
47815;BME280;33579;50.058;18.130;2023-07-29T04:51:55;98692.09;;;19.75;100.00
47815;BME280;33579;50.058;18.130;2023-07-29T04:52:56;98695.00;;;19.80;100.00
47815;BME280;33579;50.058;18.130;2023-07-29T04:53:58;98698.47;;;19.81;100.00
47815;BME280;33579;50.058;18.130;2023-07-29T04:55:00;98697.06;;;19.72;100.00
47815;BME280;33579;50.058;18.130;2023-07-29T04:56:02;98691.91;;;19.77;100.00
47815;BME280;33579;50.058;18.130;2023-07-29T04:57:04;98703.59;;;19.83;100.00
47815;BME280;33579;50.058;18.130;2023-07-29T04:58:06;98702.38;;;19.85;100.00
47815;BME280;33579;50.058;18.130;2023-07-29T04:59:07;98696.00;;;19.86;100.00
47815;BME280;33579;50.058;18.130;2023-07-29T05:00:10;98698.25;;;19.89;100.00
47815;BME280;33579;50.058;18.130;2023-07-29T05:01:11;98699.50;;;19.87;100.00
47815;BME280;33579;50.058;18.130;2023-07-29T05:02:14;98697.66;;;19.87;100.00
47815;BME280;33579;50.058;18.130;2023-07-29T05:03:15;98697.03;;;19.92;100.00
47815;BME280;33579;50.058;18.130;2023-07-29T05:04:17;98701.56;;;19.98;100.00
47815;BME280;33579;50.058;18.130;2023-07-29T05:05:19;98696.44;;;20.03;100.00
47815;BME280;33579;50.058;18.130;2023-07-29T05:06:21;98693.16;;;20.08;100.00
47815;BME280;33579;50.058;18.130;2023-07-29T05:07:22;98691.69;;;20.12;100.00
47815;BME280;33579;50.058;18.130;2023-07-29T05:08:25;98693.13;;;20.15;100.00
47815;BME280;33579;50.058;18.130;2023-07-29T05:09:26;98698.47;;;20.15;100.00
47815;BME280;33579;50.058;18.130;2023-07-29T05:10:29;98693.13;;;20.21;100.00
47815;BME280;33579;50.058;18.130;2023-07-29T05:11:31;98690.84;;;20.25;100.00
47815;BME280;33579;50.058;18.130;2023-07-29T05:12:32;98691.22;;;20.29;100.00
47815;BME280;33579;50.058;18.130;2023-07-29T05:13:34;98695.53;;;20.30;100.00
47815;BME280;33579;50.058;18.130;2023-07-29T05:14:36;98694.34;;;20.26;100.00
47815;BME280;33579;50.058;18.130;2023-07-29T05:15:37;98695.78;;;20.21;100.00
47815;BME280;33579;50.058;18.130;2023-07-29T05:16:39;98697.59;;;20.28;100.00
47815;BME280;33579;50.058;18.130;2023-07-29T05:17:41;98693.09;;;20.35;100.00
47815;BME280;33579;50.058;18.130;2023-07-29T05:18:43;98699.63;;;20.46;100.00
47815;BME280;33579;50.058;18.130;2023-07-29T05:19:45;98702.13;;;20.34;100.00
47815;BME280;33579;50.058;18.130;2023-07-29T05:20:47;98700.13;;;20.09;100.00
47815;BME280;33579;50.058;18.130;2023-07-29T05:21:49;98710.41;;;19.99;100.00
47815;BME280;33579;50.058;18.130;2023-07-29T05:22:51;98709.38;;;20.00;100.00
47815;BME280;33579;50.058;18.130;2023-07-29T05:23:52;98703.22;;;19.92;100.00
47815;BME280;33579;50.058;18.130;2023-07-29T05:24:54;98701.38;;;20.00;100.00
47815;BME280;33579;50.058;18.130;2023-07-29T05:25:55;98697.47;;;20.09;100.00
47815;BME280;33579;50.058;18.130;2023-07-29T05:26:57;98694.56;;;20.11;100.00
47815;BME280;33579;50.058;18.130;2023-07-29T05:27:59;98690.03;;;20.25;100.00
47815;BME280;33579;50.058;18.130;2023-07-29T05:29:00;98695.34;;;20.31;100.00
47815;BME280;33579;50.058;18.130;2023-07-29T05:30:02;98693.06;;;20.42;100.00
47815;BME280;33579;50.058;18.130;2023-07-29T05:31:04;98685.59;;;20.57;100.00
47815;BME280;33579;50.058;18.130;2023-07-29T05:32:06;98693.97;;;20.74;100.00